Terminal Aerodrome Forecast
Issued by NWS Blacksburg, VA

Home | Current Version | Previous Version | Text Only | Print | Product List | Glossary On
Versions: 1 2 3 4 5 6 7 8 9 10 11 12 13 14 15 16 17 18 19 20 21 22 23 24 25 26 27 28 29 30 31 32 33 34 35 36 37 38 39 40
000
FTUS41 KRNK 261740
TAFLYH
TAF
KLYH 261740Z 2618/2718 02008KT 2SM BR OVC003
     FM262100 35008KT 4SM -RA BR OVC004
     FM270100 32010G16KT 6SM -RA SCT007 OVC025
     FM270800 34008KT P6SM BKN035=

USA.gov is the U.S. government's official web portal to all federal, state and local government web resources and services.